createdAt,value
2023-03-27T03:48:14.597Z,8.80
2023-03-27T03:51:18.186Z,8.79
2023-03-27T03:54:20.860Z,8.80
2023-03-27T03:57:23.547Z,8.80
2023-03-27T04:00:28.414Z,8.83
2023-03-27T04:03:34.479Z,8.86
2023-03-27T04:06:37.837Z,8.90
2023-03-27T04:09:40.536Z,8.90
2023-03-27T04:12:50.131Z,8.94
2023-03-27T04:15:53.222Z,8.96
2023-03-27T04:18:57.529Z,8.98
2023-03-27T04:22:04.483Z,8.95
2023-03-27T04:25:08.290Z,8.89
2023-03-27T04:28:16.356Z,8.92
2023-03-27T04:31:20.026Z,8.94
2023-03-27T04:34:25.907Z,8.91
2023-03-27T04:37:30.486Z,8.92
2023-03-27T04:40:34.103Z,8.85
2023-03-27T04:43:37.060Z,8.86
2023-03-27T04:46:40.244Z,8.87
2023-03-27T04:49:46.608Z,8.80
2023-03-27T04:52:52.141Z,8.85
2023-03-27T04:55:57.160Z,8.86
2023-03-27T04:58:59.922Z,8.85
2023-03-27T05:02:04.287Z,8.87
2023-03-27T05:05:08.966Z,8.85
2023-03-27T05:08:12.020Z,8.95
2023-03-27T05:11:14.911Z,9.00
2023-03-27T05:14:20.529Z,8.92
2023-03-27T05:17:25.968Z,8.90
2023-03-27T05:20:29.011Z,8.88
2023-03-27T05:23:33.017Z,8.76
2023-03-27T05:26:37.371Z,8.78
2023-03-27T05:29:47.216Z,8.77
2023-03-27T05:32:52.329Z,8.72
2023-03-27T05:35:57.572Z,8.71
2023-03-27T05:39:01.954Z,8.85
2023-03-27T05:42:05.468Z,8.83
2023-03-27T05:45:08.478Z,8.76
2023-03-27T05:48:14.171Z,8.73
2023-03-27T05:51:17.948Z,8.70
2023-03-27T05:54:20.811Z,8.73
2023-03-27T05:57:24.555Z,8.66
2023-03-27T06:00:34.083Z,8.68
2023-03-27T06:03:38.418Z,8.69
2023-03-27T06:06:45.932Z,8.67
2023-03-27T06:09:49.670Z,8.71
2023-03-27T06:13:08.829Z,8.72
2023-03-27T06:16:12.469Z,8.77
2023-03-27T06:19:16.960Z,8.71
2023-03-27T06:22:20.062Z,8.68
2023-03-27T06:25:25.907Z,8.72
2023-03-27T06:28:30.695Z,8.72
2023-03-27T06:31:33.613Z,8.76
2023-03-27T06:34:38.682Z,8.74
2023-03-27T06:37:42.523Z,8.83
2023-03-27T06:40:46.448Z,8.83
2023-03-27T06:43:49.640Z,8.76
2023-03-27T06:46:58.964Z,8.90
2023-03-27T06:50:02.037Z,8.83
2023-03-27T06:53:10.052Z,8.94
2023-03-27T06:56:18.309Z,8.88
2023-03-27T06:59:22.847Z,8.80
2023-03-27T07:02:25.725Z,8.80
2023-03-27T07:05:36.525Z,8.92
2023-03-27T07:08:39.167Z,8.91
2023-03-27T07:11:42.538Z,8.86
2023-03-27T07:14:45.233Z,8.77
2023-03-27T07:17:55.258Z,8.79
2023-03-27T07:20:58.089Z,8.81
2023-03-27T07:24:00.988Z,8.79
2023-03-27T07:27:04.084Z,8.84
2023-03-27T07:30:12.079Z,8.88
2023-03-27T07:33:15.882Z,8.70
2023-03-27T07:36:18.666Z,8.67
2023-03-27T07:39:21.645Z,8.70
2023-03-27T07:42:24.557Z,8.83
2023-03-27T07:45:27.798Z,8.92
2023-03-27T07:48:32.230Z,8.92
2023-03-27T07:51:35.424Z,8.95
2023-03-27T07:58:00.544Z,8.86
2023-03-27T08:01:06.199Z,8.87
2023-03-27T08:04:10.136Z,8.89
2023-03-27T08:07:13.301Z,8.94
2023-03-27T08:10:16.434Z,8.87
2023-03-27T08:13:21.230Z,8.84
2023-03-27T08:16:27.792Z,8.92
2023-03-27T08:19:33.426Z,8.87
2023-03-27T08:22:38.338Z,8.83
2023-03-27T08:25:51.573Z,8.77
2023-03-27T08:28:56.387Z,8.74
2023-03-27T08:31:59.430Z,8.70
2023-03-27T08:35:02.284Z,8.60
2023-03-27T08:38:07.386Z,8.58
2023-03-27T08:41:27.056Z,8.64
2023-03-27T08:44:34.426Z,8.68
2023-03-27T08:47:46.239Z,8.64
2023-03-27T08:50:56.584Z,8.62
2023-03-27T08:54:04.177Z,8.51
2023-03-27T08:57:20.777Z,8.47
2023-03-27T09:00:33.542Z,8.55
2023-03-27T09:03:52.284Z,8.60
2023-03-27T09:07:09.313Z,8.61
2023-03-27T09:10:15.698Z,8.58
2023-03-27T09:13:29.084Z,8.56
2023-03-27T09:16:39.061Z,8.54
2023-03-27T09:20:08.797Z,8.59
2023-03-27T09:23:21.054Z,8.59
2023-03-27T09:26:36.277Z,8.62
2023-03-27T09:29:42.712Z,8.77
2023-03-27T09:32:53.952Z,8.70
2023-03-27T09:35:58.711Z,8.70
2023-03-27T09:39:23.186Z,8.67
2023-03-27T09:42:39.668Z,8.64
2023-03-27T09:45:45.101Z,8.66
2023-03-27T09:48:54.579Z,8.67
2023-03-27T09:52:02.514Z,8.74
2023-03-27T09:55:24.708Z,8.71
2023-03-27T09:58:27.819Z,8.57
2023-03-27T10:01:36.108Z,8.69
2023-03-27T10:04:39.490Z,8.63
2023-03-27T10:07:43.081Z,8.64
2023-03-27T10:10:56.342Z,8.59
2023-03-27T10:14:01.913Z,8.56
2023-03-27T10:17:06.017Z,8.64
2023-03-27T10:20:18.836Z,8.64
2023-03-27T10:23:31.531Z,8.52
2023-03-27T10:26:37.306Z,8.54
2023-03-27T10:29:41.217Z,8.47
2023-03-27T10:32:47.756Z,8.40
2023-03-27T10:35:53.068Z,8.37
2023-03-27T10:39:12.867Z,8.43
2023-03-27T10:42:17.923Z,8.49
2023-03-27T10:45:22.052Z,8.39
2023-03-27T10:48:50.991Z,8.36
2023-03-27T10:52:33.526Z,8.33
2023-03-27T10:55:48.495Z,8.31
2023-03-27T10:58:55.600Z,8.23
2023-03-27T11:02:12.756Z,8.20
2023-03-27T11:05:19.301Z,8.22
2023-03-27T11:09:06.939Z,8.23
2023-03-27T11:12:14.700Z,8.31
2023-03-27T11:15:26.115Z,8.24
2023-03-27T11:18:36.198Z,8.26
2023-03-27T11:21:53.505Z,8.24
2023-03-27T11:25:04.611Z,8.15
2023-03-27T11:28:18.018Z,8.18
2023-03-27T11:31:43.243Z,8.03
2023-03-27T11:34:57.807Z,8.03
2023-03-27T11:38:18.270Z,8.03
2023-03-27T11:41:22.030Z,7.97
2023-03-27T11:44:25.873Z,8.06
2023-03-27T11:47:53.876Z,8.10
2023-03-27T11:51:04.302Z,8.20
2023-03-27T11:54:35.199Z,8.34
2023-03-27T11:57:59.525Z,8.55
2023-03-27T12:01:08.049Z,8.71
2023-03-27T12:04:23.728Z,8.71
2023-03-27T12:07:48.995Z,8.89
2023-03-27T12:10:54.554Z,9.07
2023-03-27T12:14:18.464Z,9.35
2023-03-27T12:18:02.574Z,9.49
2023-03-27T12:21:46.505Z,9.51
2023-03-27T12:25:17.716Z,9.67
2023-03-27T12:28:45.055Z,9.70
2023-03-27T12:31:57.227Z,9.55
2023-03-27T12:35:07.748Z,9.78
2023-03-27T12:38:27.783Z,9.74
2023-03-27T12:41:33.578Z,9.70
2023-03-27T12:45:03.130Z,9.77
2023-03-27T12:48:09.943Z,9.81
2023-03-27T12:51:19.734Z,9.78
2023-03-27T12:54:38.577Z,9.80
2023-03-27T12:57:49.673Z,9.75
2023-03-27T13:01:00.356Z,9.61
2023-03-27T13:04:38.003Z,9.40
2023-03-27T13:08:14.960Z,9.35
2023-03-27T13:11:23.647Z,9.24
2023-03-27T13:14:42.298Z,8.99
2023-03-27T13:18:16.315Z,9.04
2023-03-27T13:21:47.050Z,8.84
2023-03-27T13:25:11.697Z,8.67
2023-03-27T13:28:37.054Z,8.45
2023-03-27T13:31:49.697Z,8.29
2023-03-27T13:35:23.656Z,8.16
2023-03-27T13:38:52.533Z,8.15
2023-03-27T13:42:04.577Z,8.38
2023-03-27T13:45:18.490Z,8.00
2023-03-27T13:48:37.861Z,7.83
2023-03-27T13:52:27.025Z,7.32
2023-03-27T13:55:36.836Z,7.30
2023-03-27T13:58:53.560Z,7.12
2023-03-27T14:02:04.601Z,7.39
2023-03-27T14:05:16.609Z,7.06
2023-03-27T14:08:28.122Z,7.11
2023-03-27T14:12:16.472Z,7.06
2023-03-27T14:15:42.055Z,6.88
2023-03-27T14:19:26.553Z,6.73
2023-03-27T14:22:42.537Z,6.45
2023-03-27T14:25:54.045Z,6.30
2023-03-27T14:29:02.303Z,6.34
2023-03-27T14:32:12.251Z,6.26
2023-03-27T14:35:44.818Z,6.14
2023-03-27T14:38:47.939Z,6.35
2023-03-27T14:42:02.220Z,6.57
2023-03-27T14:45:21.856Z,6.30
2023-03-27T14:48:39.769Z,5.98
2023-03-27T14:51:47.351Z,5.86
2023-03-27T14:54:55.669Z,5.67
2023-03-27T14:58:10.879Z,5.62
2023-03-27T15:01:16.944Z,5.52
2023-03-27T15:04:24.691Z,5.51
2023-03-27T15:07:30.637Z,5.42
2023-03-27T15:10:35.484Z,5.35
2023-03-27T15:13:39.292Z,5.32
2023-03-27T15:16:48.903Z,5.28
2023-03-27T15:19:56.198Z,5.19
2023-03-27T15:23:06.547Z,5.10
2023-03-27T15:26:16.174Z,5.02
2023-03-27T15:29:39.079Z,4.86
2023-03-27T15:32:50.697Z,4.79
2023-03-27T15:35:56.709Z,4.70
2023-03-27T15:39:00.788Z,4.71
2023-03-27T15:42:06.024Z,4.68
2023-03-27T15:45:10.623Z,4.61
2023-03-27T15:48:15.933Z,4.63
